Time;durP1;ratioP1;P1;durP2;ratioP2;P2;SDS_P1;SDS_P2;PMS_P1;PMS_P2;Temp;Humidity;BMP_temperature;BMP_pressure;BME280_temperature;BME280_humidity;BME280_pressure;Samples;Min_cycle;Max_cycle;Signal;HPM_P1;HPM_P2
2021/04/25 00:00:55;;;;;;;11.75;5.50;;;6.80;28.20;;;;;;5035526;28;20873;-68
2021/04/25 00:03:21;;;;;;;10.43;5.00;;;6.80;28.50;;;;;;5051480;28;20418;-68
2021/04/25 00:05:46;;;;;;;14.52;5.53;;;6.70;28.80;;;;;;5052202;28;20413;-69
2021/04/25 00:08:12;;;;;;;14.80;6.25;;;6.70;29.10;;;;;;5051847;28;20858;-70
2021/04/25 00:10:38;;;;;;;14.48;5.80;;;6.70;29.30;;;;;;5052186;28;20407;-70
2021/04/25 00:13:03;;;;;;;12.43;5.67;;;6.70;29.70;;;;;;5043669;28;20977;-69
2021/04/25 00:15:29;;;;;;;10.77;5.18;;;6.60;29.80;;;;;;5032426;28;20937;-69
2021/04/25 00:17:55;;;;;;;14.38;5.75;;;6.60;30.60;;;;;;5041848;28;20477;-70
2021/04/25 00:20:22;;;;;;;12.60;5.47;;;6.60;30.40;;;;;;5052093;28;20439;-69
2021/04/25 00:22:48;;;;;;;10.88;5.70;;;6.60;30.60;;;;;;5049637;28;20425;-69
2021/04/25 00:25:15;;;;;;;13.57;6.18;;;6.60;31.10;;;;;;5051635;28;20389;-70
2021/04/25 00:27:42;;;;;;;11.73;5.72;;;6.50;31.10;;;;;;5051704;28;20455;-69
2021/04/25 00:30:11;;;;;;;14.60;6.30;;;6.50;31.20;;;;;;5050232;28;20548;-69
2021/04/25 00:32:36;;;;;;;12.82;4.97;;;6.50;31.80;;;;;;5047389;28;20429;-69
2021/04/25 00:35:03;;;;;;;12.40;6.27;;;6.50;31.70;;;;;;5030494;28;20823;-69
2021/04/25 00:37:29;;;;;;;15.55;6.85;;;6.40;31.90;;;;;;5030687;28;20379;-69
2021/04/25 00:39:54;;;;;;;12.95;6.13;;;6.40;32.40;;;;;;5030745;28;20470;-69
2021/04/25 00:42:20;;;;;;;11.85;6.55;;;6.40;32.60;;;;;;5030396;28;20456;-69
2021/04/25 00:44:46;;;;;;;13.43;6.60;;;6.30;32.90;;;;;;5030947;28;20640;-69
2021/04/25 00:47:13;;;;;;;14.82;6.35;;;6.30;32.80;;;;;;5030606;28;20506;-69
2021/04/25 00:49:39;;;;;;;11.00;6.30;;;6.30;33.00;;;;;;5030563;28;20470;-69
2021/04/25 00:52:05;;;;;;;16.43;6.60;;;6.30;33.30;;;;;;5030524;28;20853;-69
2021/04/25 00:54:31;;;;;;;16.55;6.68;;;6.20;33.70;;;;;;5040495;28;20392;-69
2021/04/25 00:56:58;;;;;;;14.50;6.80;;;6.20;33.50;;;;;;5050037;28;20949;-69
2021/04/25 00:59:26;;;;;;;14.50;6.88;;;6.20;33.60;;;;;;5035485;28;20391;-69
2021/04/25 01:01:52;;;;;;;13.18;6.43;;;6.20;33.90;;;;;;5030079;28;20391;-69
2021/04/25 01:04:17;;;;;;;17.65;6.75;;;6.10;34.10;;;;;;5038289;28;20550;-68
2021/04/25 01:06:43;;;;;;;16.15;6.88;;;6.10;34.80;;;;;;5050204;28;20377;-70
2021/04/25 01:09:09;;;;;;;15.68;6.88;;;6.10;34.70;;;;;;5050256;28;20739;-69
2021/04/25 01:11:34;;;;;;;15.82;6.82;;;6.10;34.30;;;;;;5050326;28;20390;-69
2021/04/25 01:14:00;;;;;;;13.33;6.70;;;6.10;35.10;;;;;;5045660;28;20397;-68
2021/04/25 01:16:28;;;;;;;15.97;6.90;;;6.10;35.30;;;;;;5048957;28;20385;-68
2021/04/25 01:18:54;;;;;;;12.60;6.45;;;6.10;36.30;;;;;;5053018;28;20864;-69
2021/04/25 01:21:19;;;;;;;14.70;6.57;;;6.00;35.60;;;;;;5053992;28;20394;-68
2021/04/25 01:23:45;;;;;;;11.80;6.40;;;6.00;36.70;;;;;;5052195;28;20393;-69
2021/04/25 01:26:11;;;;;;;15.40;7.28;;;6.00;36.80;;;;;;5053882;28;20480;-73
2021/04/25 01:28:36;;;;;;;15.27;7.00;;;6.00;35.80;;;;;;5051126;28;20462;-69
2021/04/25 01:31:03;;;;;;;14.27;6.95;;;5.90;36.10;;;;;;5054034;28;20389;-71
2021/04/25 01:33:29;;;;;;;15.65;6.88;;;5.90;36.40;;;;;;5045479;28;20383;-68
2021/04/25 01:35:54;;;;;;;16.13;6.95;;;5.90;37.00;;;;;;5053434;28;20818;-69
2021/04/25 01:38:21;;;;;;;14.55;6.90;;;5.80;37.40;;;;;;5054032;28;20448;-69
2021/04/25 01:40:46;;;;;;;16.05;7.55;;;5.90;37.40;;;;;;5053880;28;20456;-69
2021/04/25 01:43:12;;;;;;;13.35;7.28;;;5.80;37.90;;;;;;5033619;28;20870;-69
2021/04/25 01:45:38;;;;;;;16.35;6.75;;;5.70;38.40;;;;;;5052546;28;20397;-69
2021/04/25 01:48:05;;;;;;;12.70;6.80;;;5.80;37.50;;;;;;5053436;28;20428;-70
2021/04/25 01:50:32;;;;;;;14.48;6.97;;;5.70;37.10;;;;;;5056453;28;20385;-69
2021/04/25 01:52:58;;;;;;;12.40;6.60;;;5.70;37.70;;;;;;5044178;28;20440;-69
2021/04/25 01:55:25;;;;;;;17.13;7.00;;;5.70;37.30;;;;;;5051202;28;20855;-68
2021/04/25 01:57:51;;;;;;;13.75;7.22;;;5.60;37.60;;;;;;5054002;28;20385;-67
2021/04/25 02:00:23;;;;;;;12.32;6.57;;;5.60;37.50;;;;;;5053891;28;20395;-68
2021/04/25 02:02:53;;;;;;;14.50;7.10;;;5.50;39.10;;;;;;5053169;28;20420;-68
2021/04/25 02:05:20;;;;;;;14.65;6.85;;;5.50;38.40;;;;;;5037472;28;20405;-69
2021/04/25 02:07:46;;;;;;;20.03;6.60;;;5.50;38.60;;;;;;5034005;28;20406;-68
2021/04/25 02:10:13;;;;;;;14.68;6.90;;;5.50;38.60;;;;;;5033295;28;20383;-68
2021/04/25 02:12:38;;;;;;;15.13;7.47;;;5.40;38.70;;;;;;5041139;28;20385;-69
2021/04/25 02:15:06;;;;;;;14.90;7.20;;;5.40;39.50;;;;;;5051508;28;20389;-69
2021/04/25 02:17:32;;;;;;;20.35;7.50;;;5.40;39.80;;;;;;5052966;28;20409;-70
2021/04/25 02:19:58;;;;;;;19.65;7.50;;;5.30;39.90;;;;;;5051781;28;20429;-68
2021/04/25 02:22:24;;;;;;;18.88;8.23;;;5.30;40.10;;;;;;5035427;28;20452;-69
2021/04/25 02:24:50;;;;;;;13.80;6.40;;;5.30;40.00;;;;;;5033242;28;20398;-68
2021/04/25 02:27:15;;;;;;;13.70;7.30;;;5.30;40.10;;;;;;5037294;28;20401;-69
2021/04/25 02:29:41;;;;;;;24.25;8.38;;;5.20;41.10;;;;;;5051670;28;20480;-69
2021/04/25 02:32:06;;;;;;;17.10;7.43;;;5.20;41.20;;;;;;5035784;28;20414;-69
2021/04/25 02:34:32;;;;;;;15.40;8.23;;;5.10;41.90;;;;;;5032936;28;20473;-69
2021/04/25 02:36:58;;;;;;;14.37;7.47;;;5.10;42.30;;;;;;5032773;28;21149;-69
2021/04/25 02:39:23;;;;;;;14.40;7.70;;;5.00;43.10;;;;;;5032717;28;20390;-69
2021/04/25 02:41:49;;;;;;;15.70;7.57;;;5.00;43.20;;;;;;5031961;28;20450;-70
2021/04/25 02:44:15;;;;;;;12.43;7.70;;;5.00;43.70;;;;;;5032588;28;20902;-69
2021/04/25 02:46:41;;;;;;;16.60;8.30;;;5.00;43.70;;;;;;5032739;28;20433;-69
2021/04/25 02:49:06;;;;;;;19.55;8.20;;;5.00;43.90;;;;;;5032193;28;20489;-69
2021/04/25 02:51:32;;;;;;;15.00;8.20;;;4.90;44.10;;;;;;5032731;28;20395;-70
2021/04/25 02:53:57;;;;;;;20.17;8.60;;;4.90;45.20;;;;;;5032401;28;20903;-70
2021/04/25 02:56:23;;;;;;;16.53;8.43;;;4.80;45.50;;;;;;5032583;28;20387;-70
2021/04/25 02:58:48;;;;;;;14.80;7.72;;;4.80;45.60;;;;;;5032319;28;20378;-70
2021/04/25 03:01:14;;;;;;;20.80;9.70;;;4.80;45.40;;;;;;5047858;28;20398;-71
2021/04/25 03:03:40;;;;;;;17.45;9.05;;;4.70;46.10;;;;;;5049404;28;20397;-71
2021/04/25 03:06:05;;;;;;;18.93;8.50;;;4.70;46.50;;;;;;5031859;28;20500;-69
2021/04/25 03:08:31;;;;;;;18.73;8.50;;;4.70;46.60;;;;;;5032185;28;20465;-70
2021/04/25 03:10:56;;;;;;;14.98;8.80;;;4.70;47.50;;;;;;5032303;28;20399;-70
2021/04/25 03:13:22;;;;;;;20.02;9.45;;;4.70;47.40;;;;;;5037604;28;20449;-71
2021/04/25 03:15:48;;;;;;;18.63;8.80;;;4.70;48.30;;;;;;5032096;28;20390;-70
2021/04/25 03:18:14;;;;;;;19.58;9.15;;;4.70;48.80;;;;;;5040001;28;20916;-70
2021/04/25 03:20:40;;;;;;;17.17;9.20;;;4.70;48.30;;;;;;5032324;28;20409;-69
2021/04/25 03:23:06;;;;;;;18.17;8.85;;;4.70;48.50;;;;;;5031794;28;20763;-70
2021/04/25 03:25:31;;;;;;;18.23;8.77;;;4.70;48.60;;;;;;5033066;28;20439;-69
2021/04/25 03:27:57;;;;;;;19.93;9.40;;;4.70;48.80;;;;;;5042370;28;20409;-69
2021/04/25 03:30:23;;;;;;;20.63;9.20;;;4.70;49.30;;;;;;5051928;28;20417;-70
2021/04/25 03:32:48;;;;;;;19.48;8.90;;;4.70;50.50;;;;;;5049583;28;20438;-70
2021/04/25 03:35:16;;;;;;;22.57;9.00;;;4.70;51.10;;;;;;5047515;28;20404;-70
2021/04/25 03:37:43;;;;;;;15.88;9.10;;;4.70;49.20;;;;;;5031965;28;20418;-70
2021/04/25 03:40:11;;;;;;;18.92;8.73;;;4.60;51.60;;;;;;5031661;28;20899;-70
2021/04/25 03:42:37;;;;;;;19.92;8.90;;;4.60;52.00;;;;;;5031577;28;20395;-70
2021/04/25 03:45:05;;;;;;;17.80;8.70;;;4.50;53.50;;;;;;5032444;28;20652;-70
2021/04/25 03:47:31;;;;;;;16.75;9.80;;;4.10;55.70;;;;;;5042695;28;20406;-70
2021/04/25 03:49:56;;;;;;;21.47;9.27;;;4.00;62.20;;;;;;5031448;28;20390;-71
2021/04/25 03:52:22;;;;;;;20.90;8.93;;;4.10;60.30;;;;;;5031409;28;20426;-71
2021/04/25 03:54:47;;;;;;;17.30;8.87;;;4.30;57.10;;;;;;5031389;28;20445;-70
2021/04/25 03:57:13;;;;;;;21.40;9.43;;;4.20;60.90;;;;;;5035182;28;20391;-70
2021/04/25 03:59:38;;;;;;;26.55;10.88;;;4.30;58.80;;;;;;5031408;28;20387;-70
2021/04/25 04:02:04;;;;;;;16.90;9.27;;;4.60;56.10;;;;;;5040884;22;20410;-77
2021/04/25 04:04:29;;;;;;;16.10;9.50;;;4.70;52.80;;;;;;4995068;28;20405;-77
2021/04/25 04:06:55;;;;;;;19.17;9.10;;;4.80;52.60;;;;;;4994915;28;20387;-77
2021/04/25 04:09:21;;;;;;;21.37;10.03;;;4.80;53.30;;;;;;4993559;28;20407;-77
2021/04/25 04:11:47;;;;;;;20.90;9.50;;;4.80;54.10;;;;;;4993928;28;20386;-77
2021/04/25 04:14:12;;;;;;;22.77;10.23;;;4.60;55.10;;;;;;5005089;28;20401;-77
2021/04/25 04:16:38;;;;;;;19.93;10.17;;;4.60;55.60;;;;;;5011677;28;20397;-77
2021/04/25 04:19:04;;;;;;;20.00;10.02;;;4.50;57.40;;;;;;5009133;28;20429;-76
2021/04/25 04:21:30;;;;;;;23.02;10.38;;;4.60;58.60;;;;;;5007770;28;20410;-76
2021/04/25 04:23:55;;;;;;;18.97;9.80;;;4.70;55.70;;;;;;5003556;28;20411;-76
2021/04/25 04:26:21;;;;;;;23.57;10.67;;;4.70;55.50;;;;;;4990722;28;20395;-77
2021/04/25 04:28:47;;;;;;;19.48;10.10;;;4.70;55.50;;;;;;4997654;28;20429;-78
2021/04/25 04:31:13;;;;;;;23.25;10.50;;;4.70;54.80;;;;;;4994967;28;20394;-79
2021/04/25 04:33:38;;;;;;;18.02;10.38;;;4.70;55.30;;;;;;4996468;28;20410;-78
2021/04/25 04:36:05;;;;;;;19.15;10.23;;;4.70;55.70;;;;;;4994487;28;20382;-78
2021/04/25 04:38:31;;;;;;;18.52;9.70;;;4.90;55.50;;;;;;4993510;28;20398;-77
2021/04/25 04:40:57;;;;;;;19.35;9.95;;;5.30;50.50;;;;;;4994702;28;20485;-78
2021/04/25 04:43:23;;;;;;;21.08;10.15;;;5.50;48.70;;;;;;5007426;28;20431;-78
2021/04/25 04:45:50;;;;;;;21.13;9.60;;;5.60;46.80;;;;;;4999372;28;20461;-77
2021/04/25 04:48:15;;;;;;;19.45;10.10;;;5.80;45.40;;;;;;4994716;28;20416;-76
2021/04/25 04:50:41;;;;;;;21.45;10.50;;;5.70;46.10;;;;;;5012373;28;20406;-77
2021/04/25 04:53:07;;;;;;;20.42;10.32;;;5.70;45.40;;;;;;5005067;28;20391;-77
2021/04/25 04:55:32;;;;;;;23.42;11.65;;;5.60;47.30;;;;;;5011041;28;20395;-75
2021/04/25 04:57:58;;;;;;;21.03;10.07;;;5.60;48.20;;;;;;5009921;28;20438;-76
2021/04/25 05:00:23;;;;;;;22.37;10.80;;;5.70;46.00;;;;;;5010624;28;20484;-76
2021/04/25 05:02:49;;;;;;;21.55;10.88;;;5.70;47.30;;;;;;5008027;28;20417;-76
2021/04/25 05:05:15;;;;;;;22.65;10.52;;;5.80;46.10;;;;;;5021814;28;20396;-76
2021/04/25 05:07:40;;;;;;;20.88;10.40;;;5.90;45.30;;;;;;4989610;28;20471;-76
2021/04/25 05:10:06;;;;;;;19.70;10.37;;;6.20;43.00;;;;;;5021239;28;20403;-76
2021/04/25 05:12:33;;;;;;;19.08;9.63;;;6.40;42.10;;;;;;4994144;28;20422;-76
2021/04/25 05:14:58;;;;;;;25.67;11.57;;;6.20;41.70;;;;;;5003261;28;20402;-77
2021/04/25 05:17:24;;;;;;;22.05;10.77;;;6.40;41.30;;;;;;5003665;28;20457;-76
2021/04/25 05:19:49;;;;;;;18.15;9.95;;;6.50;41.30;;;;;;4994889;28;20398;-76
2021/04/25 05:22:15;;;;;;;20.90;9.75;;;6.70;38.80;;;;;;4995361;28;20402;-78
2021/04/25 05:24:40;;;;;;;22.23;9.63;;;6.70;37.40;;;;;;5009497;28;20398;-77
2021/04/25 05:27:06;;;;;;;20.23;11.18;;;6.70;36.60;;;;;;4995313;28;20402;-76
2021/04/25 05:29:32;;;;;;;23.10;10.68;;;6.80;36.00;;;;;;5003373;28;20405;-77
2021/04/25 05:31:59;;;;;;;21.30;11.43;;;6.80;36.30;;;;;;5014442;28;20393;-77
2021/04/25 05:34:25;;;;;;;21.70;11.07;;;6.80;36.00;;;;;;5017610;28;20395;-78
2021/04/25 05:36:50;;;;;;;18.77;10.00;;;6.80;36.90;;;;;;5004404;28;20398;-77
2021/04/25 05:39:16;;;;;;;22.30;12.00;;;6.80;36.20;;;;;;5014241;28;20909;-73
2021/04/25 05:41:42;;;;;;;18.55;9.48;;;6.90;34.70;;;;;;5000801;28;20748;-75
2021/04/25 05:44:07;;;;;;;21.25;11.02;;;7.10;36.10;;;;;;4999145;28;20448;-74
2021/04/25 05:46:33;;;;;;;18.92;10.40;;;7.20;32.60;;;;;;5028819;28;20389;-74
2021/04/25 05:48:59;;;;;;;15.25;9.00;;;7.10;32.20;;;;;;5009237;28;20771;-75
2021/04/25 05:51:25;;;;;;;20.10;9.55;;;7.10;35.20;;;;;;5001334;28;20404;-74
2021/04/25 05:53:52;;;;;;;20.13;10.43;;;7.10;32.80;;;;;;5014978;28;20522;-75
2021/04/25 05:56:19;;;;;;;25.60;10.33;;;7.20;32.30;;;;;;5008349;28;20485;-74
2021/04/25 05:58:45;;;;;;;25.90;10.90;;;7.20;33.10;;;;;;5007533;28;20402;-74
2021/04/25 06:01:11;;;;;;;23.58;11.80;;;7.40;30.70;;;;;;5027917;28;20420;-74
2021/04/25 06:03:36;;;;;;;22.30;9.57;;;7.50;31.00;;;;;;5020637;28;20593;-75
2021/04/25 06:06:02;;;;;;;15.75;9.30;;;7.50;31.60;;;;;;5030956;28;20404;-76
2021/04/25 06:08:28;;;;;;;20.80;9.60;;;7.70;30.30;;;;;;5028296;28;20432;-76
2021/04/25 06:10:53;;;;;;;18.83;9.00;;;7.70;29.20;;;;;;5002562;28;20404;-76
2021/04/25 06:13:19;;;;;;;23.30;9.10;;;7.80;28.10;;;;;;4999601;28;20832;-76
2021/04/25 06:15:44;;;;;;;16.23;8.60;;;7.90;29.00;;;;;;5025271;28;20400;-76
2021/04/25 06:18:10;;;;;;;19.60;8.63;;;7.90;26.90;;;;;;5023013;28;20436;-75
2021/04/25 06:20:35;;;;;;;14.90;8.70;;;8.00;25.10;;;;;;5016163;28;20858;-75
2021/04/25 06:23:01;;;;;;;16.30;7.37;;;8.10;24.70;;;;;;5024643;28;20407;-75
2021/04/25 06:25:27;;;;;;;16.48;8.43;;;7.90;22.90;;;;;;5014494;28;20516;-77
2021/04/25 06:27:52;;;;;;;13.45;7.05;;;7.60;23.10;;;;;;5005938;28;20994;-78
2021/04/25 06:30:19;;;;;;;16.15;7.55;;;7.70;23.20;;;;;;4993953;28;20488;-77
2021/04/25 06:32:46;;;;;;;13.32;7.47;;;7.80;24.90;;;;;;4999270;28;20413;-78
2021/04/25 06:35:13;;;;;;;23.98;7.30;;;7.90;25.10;;;;;;5005662;28;20449;-78
2021/04/25 06:37:40;;;;;;;14.65;7.10;;;8.20;21.80;;;;;;5006786;28;20387;-77
2021/04/25 06:40:08;;;;;;;11.05;7.30;;;8.20;19.50;;;;;;5000015;28;20402;-78
2021/04/25 06:42:35;;;;;;;13.93;7.22;;;8.20;21.60;;;;;;5003552;28;20406;-78
2021/04/25 06:45:01;;;;;;;14.65;7.32;;;8.40;20.00;;;;;;4990794;28;20413;-78
2021/04/25 06:47:26;;;;;;;13.82;7.82;;;8.40;18.30;;;;;;4989821;28;20412;-78
2021/04/25 06:49:52;;;;;;;10.50;7.40;;;8.00;18.60;;;;;;4996650;28;20409;-77
2021/04/25 06:52:18;;;;;;;15.13;7.47;;;8.00;19.60;;;;;;5005760;28;20483;-74
2021/04/25 06:54:44;;;;;;;11.70;7.77;;;7.90;19.00;;;;;;4991882;28;20494;-74
2021/04/25 06:57:10;;;;;;;13.85;8.32;;;7.80;19.20;;;;;;5017572;28;20443;-75
2021/04/25 06:59:35;;;;;;;11.15;7.28;;;8.00;19.50;;;;;;5014860;28;20389;-74
2021/04/25 07:02:01;;;;;;;12.47;7.13;;;8.10;18.50;;;;;;5006784;28;21086;-74
2021/04/25 07:04:26;;;;;;;17.47;7.60;;;8.20;18.30;;;;;;4998257;28;20402;-73
2021/04/25 07:06:52;;;;;;;9.30;7.50;;;8.40;18.50;;;;;;5000507;28;20392;-74
2021/04/25 07:09:18;;;;;;;15.45;8.50;;;8.60;18.20;;;;;;5001731;28;20408;-75
2021/04/25 07:11:43;;;;;;;16.60;10.23;;;8.50;17.30;;;;;;4993158;28;20409;-73
2021/04/25 07:14:09;;;;;;;14.25;10.50;;;8.40;17.50;;;;;;4998133;28;20497;-74
2021/04/25 07:16:35;;;;;;;18.63;10.27;;;8.10;17.70;;;;;;4991751;28;20541;-74
2021/04/25 07:19:00;;;;;;;15.73;10.07;;;7.70;18.10;;;;;;4993304;28;20903;-74
2021/04/25 07:21:26;;;;;;;13.73;9.50;;;7.60;19.30;;;;;;4993334;28;20406;-75
2021/04/25 07:23:52;;;;;;;17.67;9.82;;;7.70;18.50;;;;;;5003274;28;20398;-75
2021/04/25 07:26:18;;;;;;;11.87;8.90;;;7.80;18.40;;;;;;5003920;28;20498;-78
2021/04/25 07:28:44;;;;;;;15.00;8.50;;;8.20;17.80;;;;;;4998281;28;20445;-74
2021/04/25 07:31:12;;;;;;;12.32;7.70;;;8.50;17.80;;;;;;5015005;28;20796;-74
2021/04/25 07:33:38;;;;;;;12.60;8.90;;;8.90;18.00;;;;;;5022634;28;20389;-75
2021/04/25 07:36:08;;;;;;;15.65;10.27;;;9.10;17.10;;;;;;5005902;28;20410;-76
2021/04/25 07:38:34;;;;;;;15.02;11.32;;;9.00;15.60;;;;;;5007459;28;20436;-75
2021/04/25 07:41:00;;;;;;;15.90;10.00;;;8.70;16.40;;;;;;5001615;28;20470;-75
2021/04/25 07:43:25;;;;;;;12.77;8.18;;;8.70;15.90;;;;;;5011046;28;20408;-75
2021/04/25 07:45:51;;;;;;;15.27;8.65;;;8.90;17.00;;;;;;5004626;28;20898;-76
2021/04/25 07:48:17;;;;;;;13.55;7.53;;;9.40;15.80;;;;;;5002120;28;20934;-75
2021/04/25 07:50:44;;;;;;;13.07;6.35;;;9.80;14.90;;;;;;5008476;28;20401;-76
2021/04/25 07:53:10;;;;;;;10.70;6.87;;;9.80;13.90;;;;;;5018116;28;20480;-77
2021/04/25 07:55:35;;;;;;;13.50;6.27;;;9.70;14.40;;;;;;4995471;28;20925;-76
2021/04/25 07:58:01;;;;;;;11.52;6.60;;;9.40;14.00;;;;;;5007360;28;20440;-76
2021/04/25 08:00:26;;;;;;;17.13;11.37;;;9.10;15.40;;;;;;5027677;28;20404;-75
2021/04/25 08:02:52;;;;;;;19.92;12.00;;;8.70;15.20;;;;;;5001586;28;20408;-77
2021/04/25 08:05:17;;;;;;;19.08;10.40;;;8.10;16.40;;;;;;5003605;28;20806;-76
2021/04/25 08:07:45;;;;;;;29.05;12.98;;;7.80;17.90;;;;;;4992183;28;20519;-76
2021/04/25 08:10:11;;;;;;;24.85;13.70;;;7.60;18.30;;;;;;4988939;28;20430;-74
2021/04/25 08:12:36;;;;;;;22.80;14.68;;;7.50;18.40;;;;;;5007678;28;20438;-76
2021/04/25 08:15:04;;;;;;;17.47;11.33;;;7.50;19.00;;;;;;4994096;28;20406;-76
2021/04/25 08:17:29;;;;;;;20.92;13.13;;;7.60;18.70;;;;;;4986625;28;20466;-76
2021/04/25 08:19:55;;;;;;;18.70;13.47;;;7.70;18.50;;;;;;4990066;28;20937;-78
2021/04/25 08:22:20;;;;;;;16.40;11.40;;;7.80;17.70;;;;;;4994334;28;20422;-78
2021/04/25 08:24:46;;;;;;;20.07;11.20;;;7.80;17.80;;;;;;4993521;28;20406;-77
2021/04/25 08:27:12;;;;;;;18.93;13.47;;;8.10;18.00;;;;;;4996708;28;20469;-76
2021/04/25 08:29:37;;;;;;;20.23;13.80;;;8.50;18.70;;;;;;4986909;28;20419;-76
2021/04/25 08:32:03;;;;;;;26.17;13.52;;;8.90;17.70;;;;;;4991359;28;20403;-75
2021/04/25 08:34:29;;;;;;;20.20;13.57;;;9.20;16.30;;;;;;4989745;28;20902;-79
2021/04/25 08:36:54;;;;;;;17.63;13.77;;;9.40;14.90;;;;;;5002277;28;20493;-78
2021/04/25 08:39:20;;;;;;;16.50;12.03;;;9.80;13.20;;;;;;4998301;28;20410;-78
2021/04/25 08:41:47;;;;;;;20.67;13.40;;;10.00;13.00;;;;;;4999517;28;20403;-74
2021/04/25 08:44:18;;;;;;;21.43;13.00;;;10.00;14.40;;;;;;4994437;28;20410;-78
2021/04/25 08:46:46;;;;;;;21.58;12.30;;;9.60;13.20;;;;;;5002238;28;20433;-74
2021/04/25 08:49:13;;;;;;;17.52;12.27;;;8.90;15.00;;;;;;5000697;28;20410;-77
2021/04/25 08:51:41;;;;;;;18.48;13.60;;;8.60;15.90;;;;;;4997334;28;20400;-77
2021/04/25 08:54:06;;;;;;;20.73;13.85;;;8.60;16.50;;;;;;5000971;28;20394;-76
2021/04/25 08:56:32;;;;;;;18.87;14.40;;;8.80;16.70;;;;;;5001573;28;20456;-77
2021/04/25 08:58:57;;;;;;;22.00;13.37;;;8.90;17.10;;;;;;4995624;28;20417;-76
2021/04/25 09:01:23;;;;;;;18.40;12.23;;;9.10;16.30;;;;;;4977780;28;20408;-78
2021/04/25 09:03:49;;;;;;;16.52;11.48;;;8.90;15.90;;;;;;4997532;28;20422;-75
2021/04/25 09:06:14;;;;;;;14.82;10.20;;;8.90;15.90;;;;;;5005470;28;20389;-77
2021/04/25 09:08:45;;;;;;;14.65;9.13;;;8.90;16.60;;;;;;5010606;28;20416;-76
2021/04/25 09:11:47;;;;;;;13.40;9.30;;;8.90;15.80;;;;;;4995854;28;22398;-77
2021/04/25 09:14:22;;;;;;;19.95;11.40;;;9.10;15.30;;;;;;4968487;28;20447;-76
2021/04/25 09:16:54;;;;;;;13.60;9.25;;;9.30;15.20;;;;;;4997121;28;20452;-77
2021/04/25 09:19:25;;;;;;;13.88;9.80;;;9.30;14.60;;;;;;4995851;28;20520;-77
2021/04/25 09:22:03;;;;;;;16.02;9.73;;;9.60;15.50;;;;;;4995060;28;20410;-76
2021/04/25 09:24:31;;;;;;;14.03;8.13;;;10.20;13.40;;;;;;4992540;28;20422;-75
2021/04/25 09:26:58;;;;;;;11.27;8.10;;;10.40;12.90;;;;;;4996643;28;20493;-75
2021/04/25 09:29:26;;;;;;;12.50;9.07;;;10.20;13.00;;;;;;4982090;28;20463;-77
2021/04/25 09:31:53;;;;;;;12.00;8.80;;;10.00;13.20;;;;;;4993325;28;20398;-78
2021/04/25 09:34:37;;;;;;;10.40;7.90;;;9.80;13.80;;;;;;4992951;28;20546;-76
2021/04/25 09:37:17;;;;;;;10.82;7.93;;;9.70;14.50;;;;;;5001976;28;20511;-76
2021/04/25 09:40:06;;;;;;;12.35;7.43;;;9.50;14.20;;;;;;4996230;28;20432;-76
2021/04/25 09:42:32;;;;;;;13.23;7.97;;;9.40;14.40;;;;;;5001671;28;20397;-77
2021/04/25 09:44:59;;;;;;;10.20;7.20;;;9.10;15.00;;;;;;4997284;28;20398;-77
2021/04/25 09:47:32;;;;;;;13.23;7.00;;;9.10;16.30;;;;;;4988729;28;20404;-77
2021/04/25 09:50:00;;;;;;;13.23;7.50;;;9.40;14.40;;;;;;4988094;28;20396;-76
2021/04/25 09:52:37;;;;;;;8.32;7.43;;;9.60;15.50;;;;;;4993699;28;20472;-75
2021/04/25 09:55:23;;;;;;;11.63;8.50;;;9.90;13.80;;;;;;4985211;28;20471;-75
2021/04/25 09:57:51;;;;;;;12.13;8.40;;;9.60;13.60;;;;;;4996011;28;20398;-76
2021/04/25 10:00:17;;;;;;;13.65;8.73;;;9.50;14.40;;;;;;5002131;28;20402;-75
2021/04/25 10:02:58;;;;;;;11.20;8.60;;;9.60;14.80;;;;;;5029702;28;20474;-75
2021/04/25 10:05:24;;;;;;;14.80;7.10;;;9.60;14.10;;;;;;4999612;28;20472;-79
2021/04/25 10:07:50;;;;;;;10.98;7.10;;;9.70;13.70;;;;;;5009075;28;20419;-80
2021/04/25 10:10:16;;;;;;;12.07;7.33;;;9.80;13.70;;;;;;5015720;28;20986;-75
2021/04/25 10:12:46;;;;;;;8.95;6.05;;;9.80;13.90;;;;;;5011048;28;20397;-76
2021/04/25 10:15:13;;;;;;;10.10;6.30;;;9.80;14.00;;;;;;5001607;28;20410;-78
2021/04/25 10:17:47;;;;;;;7.53;6.60;;;9.70;13.30;;;;;;4997020;28;20462;-76
2021/04/25 10:20:16;;;;;;;10.77;6.53;;;9.60;13.90;;;;;;5013317;28;20436;-75
2021/04/25 10:22:43;;;;;;;10.73;5.93;;;9.80;14.20;;;;;;5008235;28;20492;-77
2021/04/25 10:25:12;;;;;;;5.47;4.97;;;9.70;13.00;;;;;;4996391;28;20399;-78
2021/04/25 10:27:42;;;;;;;11.55;6.10;;;9.80;13.50;;;;;;4995607;28;20852;-75
2021/04/25 10:30:10;;;;;;;9.77;5.60;;;10.10;12.40;;;;;;4989054;28;20507;-75
2021/04/25 10:32:36;;;;;;;11.43;6.50;;;10.10;12.50;;;;;;5016230;28;20399;-76
2021/04/25 10:35:35;;;;;;;9.82;7.28;;;10.20;12.30;;;;;;4998801;28;20382;-75
2021/04/25 10:38:06;;;;;;;19.02;7.45;;;10.10;12.60;;;;;;4997763;28;20430;-76
2021/04/25 10:40:33;;;;;;;9.93;6.50;;;9.80;13.50;;;;;;4996277;28;20768;-77
2021/04/25 10:43:06;;;;;;;11.55;6.78;;;10.10;14.10;;;;;;4976938;28;20432;-75
2021/04/25 10:45:35;;;;;;;10.50;7.00;;;10.20;13.40;;;;;;4977445;28;20800;-77
2021/04/25 10:48:22;;;;;;;11.87;6.77;;;10.40;13.10;;;;;;4975861;28;20416;-76
2021/04/25 10:50:53;;;;;;;10.15;6.35;;;10.70;12.10;;;;;;4975592;28;20972;-77
2021/04/25 10:53:22;;;;;;;8.65;6.20;;;10.70;11.80;;;;;;4976477;28;20765;-76
2021/04/25 10:56:11;;;;;;;12.38;6.40;;;10.70;11.40;;;;;;4992171;28;20394;-76
2021/04/25 10:58:37;;;;;;;11.10;7.10;;;10.50;11.50;;;;;;4993865;28;20402;-76
2021/04/25 11:01:03;;;;;;;11.70;6.10;;;10.60;11.70;;;;;;4998925;28;20484;-77
2021/04/25 11:03:37;;;;;;;11.00;6.53;;;10.60;12.00;;;;;;5015170;28;20997;-77
2021/04/25 11:06:04;;;;;;;10.88;6.72;;;10.50;12.30;;;;;;5014488;28;20400;-77
2021/04/25 11:08:29;;;;;;;10.32;6.72;;;10.70;11.90;;;;;;5014271;28;20428;-77
2021/04/25 11:10:58;;;;;;;15.63;6.70;;;10.70;12.10;;;;;;5011556;28;20406;-77
2021/04/25 11:13:57;;;;;;;10.65;7.00;;;10.70;12.30;;;;;;5001418;28;21034;-78
2021/04/25 11:16:32;;;;;;;7.80;6.80;;;10.80;11.80;;;;;;5003208;28;20406;-78
2021/04/25 11:19:12;;;;;;;10.52;6.97;;;11.00;12.00;;;;;;4994550;28;20831;-77
2021/04/25 11:21:54;;;;;;;10.73;6.97;;;11.00;11.30;;;;;;4995222;28;20397;-77
2021/04/25 11:24:27;;;;;;;10.73;7.30;;;10.90;11.40;;;;;;5012181;28;20468;-77
2021/04/25 11:26:56;;;;;;;15.15;7.20;;;10.90;11.80;;;;;;5014417;28;20392;-77
2021/04/25 11:29:27;;;;;;;10.20;7.60;;;10.90;11.80;;;;;;4995801;28;20728;-78
2021/04/25 11:31:58;;;;;;;11.65;7.60;;;11.00;11.20;;;;;;4995626;28;20938;-78
2021/04/25 11:34:27;;;;;;;14.15;7.38;;;10.80;11.30;;;;;;5010310;28;20403;-77
2021/04/25 11:36:54;;;;;;;10.90;6.30;;;10.70;11.30;;;;;;5015263;28;20745;-74
2021/04/25 11:39:22;;;;;;;11.88;6.70;;;10.70;11.40;;;;;;5013398;28;20400;-77
2021/04/25 11:41:50;;;;;;;12.05;7.70;;;10.80;12.00;;;;;;5017230;28;20392;-78
2021/04/25 11:44:40;;;;;;;10.65;6.60;;;10.90;11.70;;;;;;5013472;28;20408;-78
2021/04/25 11:47:08;;;;;;;11.13;7.20;;;10.80;11.00;;;;;;4998293;28;20959;-76
2021/04/25 11:49:39;;;;;;;9.30;6.60;;;10.80;11.90;;;;;;5014567;28;20516;-77
2021/04/25 11:52:14;;;;;;;9.13;5.95;;;11.00;11.40;;;;;;5001438;28;20421;-75
2021/04/25 11:54:47;;;;;;;9.02;6.90;;;11.10;11.80;;;;;;4995248;28;20401;-74
2021/04/25 11:57:21;;;;;;;8.35;6.00;;;11.10;11.20;;;;;;5003979;28;20759;-75
2021/04/25 12:00:04;;;;;;;11.45;8.07;;;11.40;10.20;;;;;;4994866;28;20457;-77
2021/04/25 12:02:35;;;;;;;10.43;6.30;;;11.70;9.50;;;;;;4994355;28;20398;-76
2021/04/25 12:05:08;;;;;;;8.02;6.50;;;11.90;9.50;;;;;;5004575;28;20765;-77
2021/04/25 12:07:55;;;;;;;10.77;6.95;;;12.10;10.00;;;;;;5012044;28;20905;-76
2021/04/25 12:10:35;;;;;;;7.88;6.72;;;12.20;8.90;;;;;;5000516;28;20397;-77
2021/04/25 12:13:19;;;;;;;9.05;6.72;;;12.20;8.30;;;;;;5007875;28;20433;-77
2021/04/25 12:16:03;;;;;;;10.45;6.82;;;12.30;9.10;;;;;;5029935;28;20422;-76
2021/04/25 12:18:36;;;;;;;11.10;6.50;;;12.20;8.80;;;;;;5005974;28;20402;-75
2021/04/25 12:21:15;;;;;;;12.57;6.88;;;12.00;9.30;;;;;;5000328;28;20508;-75
2021/04/25 12:24:00;;;;;;;11.73;6.53;;;12.00;9.30;;;;;;5011394;28;20389;-75
2021/04/25 12:26:32;;;;;;;8.50;6.50;;;12.30;10.30;;;;;;4989627;28;20402;-77
2021/04/25 12:28:59;;;;;;;8.95;6.35;;;12.70;8.90;;;;;;4999110;28;20774;-77
2021/04/25 12:31:26;;;;;;;10.00;6.13;;;12.60;7.50;;;;;;4996358;28;20884;-78
2021/04/25 12:33:54;;;;;;;10.13;6.00;;;12.30;8.60;;;;;;4998473;28;20416;-77
2021/04/25 12:36:22;;;;;;;12.52;6.45;;;12.50;8.80;;;;;;5019966;28;20483;-76
2021/04/25 12:39:14;;;;;;;15.05;6.13;;;12.70;8.90;;;;;;5016081;28;20400;-77
2021/04/25 12:41:42;;;;;;;10.43;6.63;;;13.00;7.50;;;;;;5013097;28;20765;-77
2021/04/25 12:44:07;;;;;;;11.20;6.60;;;12.70;7.50;;;;;;5016045;28;20715;-76
2021/04/25 12:46:33;;;;;;;11.23;6.43;;;12.60;7.80;;;;;;5001093;28;20412;-77